Time;durP1;ratioP1;P1;durP2;ratioP2;P2;SDS_P1;SDS_P2;PMS_P1;PMS_P2;Temp;Humidity;BMP_temperature;BMP_pressure;BME280_temperature;BME280_humidity;BME280_pressure;Samples;Min_cycle;Max_cycle;Signal;HPM_P1;HPM_P2
2021/04/19 00:01:23;;;;;;;11.23;7.30;;;6.60;99.90;;;;;;4173712;28;20485;-61
2021/04/19 00:03:24;;;;;;;11.23;7.50;;;6.50;99.90;;;;;;4172128;28;20087;-62
2021/04/19 00:05:25;;;;;;;13.07;7.80;;;6.50;99.90;;;;;;4174002;28;20435;-62
2021/04/19 00:07:26;;;;;;;12.27;6.87;;;6.50;99.90;;;;;;4172391;28;20770;-64
2021/04/19 00:09:27;;;;;;;10.20;7.20;;;6.50;99.90;;;;;;4173984;28;20099;-65
2021/04/19 00:11:29;;;;;;;12.40;7.20;;;6.50;99.90;;;;;;4172557;28;20835;-65
2021/04/19 00:13:30;;;;;;;12.50;8.03;;;6.50;99.90;;;;;;4173460;28;20334;-63
2021/04/19 00:15:31;;;;;;;11.00;7.03;;;6.50;99.90;;;;;;4172899;28;20354;-68
2021/04/19 00:17:33;;;;;;;11.83;7.70;;;6.50;99.90;;;;;;4173178;28;20036;-68
2021/04/19 00:19:34;;;;;;;12.13;8.67;;;6.50;99.90;;;;;;4172927;28;20041;-62
2021/04/19 00:21:35;;;;;;;13.77;8.07;;;6.50;99.90;;;;;;4162516;28;20072;-64
2021/04/19 00:23:36;;;;;;;11.80;7.93;;;6.50;99.90;;;;;;4157366;28;20033;-67
2021/04/19 00:25:37;;;;;;;11.27;7.37;;;6.50;99.90;;;;;;4156190;28;20096;-63
2021/04/19 00:27:39;;;;;;;14.20;8.27;;;6.50;99.90;;;;;;4156716;28;20100;-65
2021/04/19 00:29:40;;;;;;;15.50;9.07;;;6.50;99.90;;;;;;4155031;28;20049;-62
2021/04/19 00:31:42;;;;;;;13.50;8.67;;;6.50;99.90;;;;;;4157378;28;20566;-62
2021/04/19 00:33:43;;;;;;;11.40;8.03;;;6.60;99.90;;;;;;4137693;28;20042;-63
2021/04/19 00:35:44;;;;;;;10.80;7.67;;;6.60;99.90;;;;;;4156991;28;20087;-63
2021/04/19 00:37:45;;;;;;;12.47;7.97;;;6.70;99.90;;;;;;4156086;28;20041;-64
2021/04/19 00:39:46;;;;;;;11.80;7.90;;;6.70;99.90;;;;;;4159784;28;20076;-64
2021/04/19 00:41:48;;;;;;;10.70;7.90;;;6.70;99.90;;;;;;4158970;28;20068;-63
2021/04/19 00:43:49;;;;;;;11.53;7.30;;;6.70;99.90;;;;;;4159288;28;20642;-62
2021/04/19 00:45:51;;;;;;;12.10;7.87;;;6.60;99.90;;;;;;4159253;28;20045;-64
2021/04/19 00:47:53;;;;;;;11.93;7.87;;;6.60;99.90;;;;;;4160001;28;20711;-67
2021/04/19 00:49:54;;;;;;;12.03;7.67;;;6.60;99.90;;;;;;4158606;28;20038;-63
2021/04/19 00:51:56;;;;;;;14.53;8.53;;;6.70;99.90;;;;;;4159249;28;20029;-64
2021/04/19 00:53:58;;;;;;;11.43;8.20;;;6.70;99.90;;;;;;4160007;28;20037;-65
2021/04/19 00:55:59;;;;;;;10.90;8.43;;;6.70;99.90;;;;;;4159145;28;20092;-63
2021/04/19 00:58:00;;;;;;;10.53;7.83;;;6.60;99.90;;;;;;4159676;28;20029;-65
2021/04/19 01:00:14;;;;;;;13.43;8.83;;;6.50;99.90;;;;;;4158014;28;20045;-63
2021/04/19 01:02:15;;;;;;;10.30;7.73;;;6.60;99.90;;;;;;4159611;28;20548;-63
2021/04/19 01:04:16;;;;;;;12.33;8.40;;;6.50;99.90;;;;;;4158472;28;20080;-63
2021/04/19 01:06:18;;;;;;;13.10;8.23;;;6.50;99.90;;;;;;4159361;28;20037;-63
2021/04/19 01:08:19;;;;;;;11.27;8.43;;;6.50;99.90;;;;;;4158667;28;20482;-63
2021/04/19 01:10:20;;;;;;;11.43;8.33;;;6.50;99.90;;;;;;4159724;28;20034;-65
2021/04/19 01:12:21;;;;;;;12.73;8.47;;;6.50;99.90;;;;;;4157937;28;20045;-66
2021/04/19 01:14:23;;;;;;;10.70;8.67;;;6.50;99.90;;;;;;4160681;28;20029;-63
2021/04/19 01:16:24;;;;;;;12.73;8.03;;;6.50;99.90;;;;;;4158148;28;20083;-68
2021/04/19 01:18:25;;;;;;;13.40;9.03;;;6.50;99.90;;;;;;4159122;28;20037;-65
2021/04/19 01:20:29;;;;;;;11.17;8.50;;;6.50;99.90;;;;;;4158818;28;20025;-65
2021/04/19 01:22:30;;;;;;;13.70;9.17;;;6.60;99.90;;;;;;4167389;28;20075;-63
2021/04/19 01:24:31;;;;;;;11.67;8.13;;;6.60;99.90;;;;;;4175868;28;20067;-63
2021/04/19 01:26:32;;;;;;;13.70;9.33;;;6.60;99.90;;;;;;4175035;28;20079;-66
2021/04/19 01:28:33;;;;;;;12.20;8.70;;;6.50;99.90;;;;;;4175620;28;20041;-62
2021/04/19 01:30:40;;;;;;;15.80;8.47;;;6.50;99.90;;;;;;4174436;28;20032;-65
2021/04/19 01:32:42;;;;;;;13.93;9.40;;;6.50;99.90;;;;;;4176130;28;20032;-63
2021/04/19 01:34:44;;;;;;;15.60;9.20;;;6.50;99.90;;;;;;4174700;28;20568;-64
2021/04/19 01:36:47;;;;;;;16.67;9.73;;;6.50;99.90;;;;;;4175769;28;20544;-63
2021/04/19 01:38:50;;;;;;;18.37;10.60;;;6.50;99.90;;;;;;4174731;28;20029;-65
2021/04/19 01:40:55;;;;;;;16.73;10.73;;;6.50;99.90;;;;;;4164997;28;20033;-64
2021/04/19 01:42:58;;;;;;;15.47;10.10;;;6.50;99.90;;;;;;4157323;28;20038;-65
2021/04/19 01:44:59;;;;;;;15.90;9.90;;;6.50;99.90;;;;;;4158639;28;20092;-66
2021/04/19 01:47:01;;;;;;;15.53;10.17;;;6.50;99.90;;;;;;4157753;28;20490;-63
2021/04/19 01:49:02;;;;;;;15.13;10.40;;;6.50;99.90;;;;;;4158587;28;20042;-64
2021/04/19 01:51:04;;;;;;;16.67;10.10;;;6.50;99.90;;;;;;4157342;28;20034;-64
2021/04/19 01:53:05;;;;;;;15.63;8.77;;;6.50;99.90;;;;;;4158152;28;20080;-65
2021/04/19 01:55:13;;;;;;;16.37;9.73;;;6.50;99.90;;;;;;4157740;28;20033;-63
2021/04/19 01:57:14;;;;;;;16.30;9.43;;;6.60;99.90;;;;;;4158782;28;20068;-69
2021/04/19 01:59:17;;;;;;;11.67;9.10;;;6.50;99.90;;;;;;4157479;28;20041;-63
2021/04/19 02:01:18;;;;;;;12.43;8.50;;;6.50;99.90;;;;;;4158356;28;20478;-63
2021/04/19 02:03:42;;;;;;;14.20;9.37;;;6.50;99.90;;;;;;4157963;28;20034;-63
2021/04/19 02:06:05;;;;;;;13.80;9.40;;;6.50;99.90;;;;;;4157919;28;20444;-63
2021/04/19 02:08:34;;;;;;;13.70;9.40;;;6.50;99.90;;;;;;4161557;28;20033;-64
2021/04/19 02:10:51;;;;;;;15.50;9.23;;;6.60;99.90;;;;;;4175397;28;20059;-62
2021/04/19 02:13:10;;;;;;;15.33;9.47;;;6.50;99.90;;;;;;4155538;28;20037;-65
2021/04/19 02:15:49;;;;;;;13.10;9.27;;;6.50;99.90;;;;;;4174702;28;20098;-62
2021/04/19 02:18:12;;;;;;;16.80;10.40;;;6.50;99.90;;;;;;4173990;28;20492;-62
2021/04/19 02:20:30;;;;;;;16.07;10.37;;;6.40;99.90;;;;;;4140981;28;20112;-64
2021/04/19 02:22:58;;;;;;;16.97;10.80;;;6.40;99.90;;;;;;4157511;28;20088;-64
2021/04/19 02:25:17;;;;;;;17.57;11.00;;;6.40;99.90;;;;;;4158551;28;20057;-63
2021/04/19 02:27:32;;;;;;;14.27;9.37;;;6.40;99.90;;;;;;4158268;28;20091;-64
2021/04/19 02:29:43;;;;;;;16.20;10.87;;;6.40;99.90;;;;;;4158078;28;20038;-64
2021/04/19 02:31:51;;;;;;;14.20;9.67;;;6.40;99.90;;;;;;4174495;28;20037;-66
2021/04/19 02:33:54;;;;;;;15.43;9.73;;;6.30;99.90;;;;;;4173566;28;20427;-67
2021/04/19 02:35:56;;;;;;;15.30;9.70;;;6.40;99.90;;;;;;4174169;28;20091;-65
2021/04/19 02:37:58;;;;;;;17.00;10.77;;;6.40;99.90;;;;;;4174356;28;20090;-63
2021/04/19 02:40:01;;;;;;;17.90;11.03;;;6.40;99.90;;;;;;4173428;28;20025;-65
2021/04/19 02:42:03;;;;;;;15.67;11.30;;;6.40;99.90;;;;;;4173792;28;20037;-65
2021/04/19 02:44:08;;;;;;;14.27;10.37;;;6.40;99.90;;;;;;4173446;28;20459;-66
2021/04/19 02:46:10;;;;;;;18.50;11.17;;;6.40;99.90;;;;;;4173999;28;20650;-64
2021/04/19 02:48:13;;;;;;;17.07;11.80;;;6.40;99.90;;;;;;4172538;28;20040;-65
2021/04/19 02:50:20;;;;;;;18.33;12.30;;;6.40;99.90;;;;;;4174585;28;20420;-62
2021/04/19 02:52:22;;;;;;;20.77;12.27;;;6.40;99.90;;;;;;4173205;28;20312;-64
2021/04/19 02:54:24;;;;;;;22.40;13.57;;;6.30;99.90;;;;;;4156430;28;20071;-65
2021/04/19 02:56:29;;;;;;;18.53;12.50;;;6.30;99.90;;;;;;4173454;28;20103;-64
2021/04/19 02:58:49;;;;;;;19.27;13.07;;;6.30;99.90;;;;;;4173671;28;20332;-65
2021/04/19 03:00:50;;;;;;;21.08;13.65;;;6.30;99.90;;;;;;4172640;28;20078;-62
2021/04/19 03:02:54;;;;;;;21.60;13.40;;;6.30;99.90;;;;;;4173458;28;20037;-68
2021/04/19 03:04:56;;;;;;;20.80;12.67;;;6.30;99.90;;;;;;4172174;28;20099;-62
2021/04/19 03:06:59;;;;;;;21.70;12.90;;;6.30;99.90;;;;;;4173301;28;20048;-66
2021/04/19 03:09:03;;;;;;;20.47;13.13;;;6.40;99.90;;;;;;4172023;28;20094;-65
2021/04/19 03:11:09;;;;;;;22.03;13.53;;;6.40;99.90;;;;;;4174257;28;20067;-63
2021/04/19 03:13:12;;;;;;;19.77;13.10;;;6.40;99.90;;;;;;4172847;28;20099;-62
2021/04/19 03:15:38;;;;;;;23.03;13.87;;;6.40;99.90;;;;;;4173497;28;20025;-68
2021/04/19 03:17:40;;;;;;;21.83;14.57;;;6.30;99.90;;;;;;4171552;28;20324;-63
2021/04/19 03:20:07;;;;;;;22.63;15.57;;;6.30;99.90;;;;;;4173093;28;20040;-64
2021/04/19 03:22:10;;;;;;;22.63;15.13;;;6.30;99.90;;;;;;4162022;28;20049;-63
2021/04/19 03:24:13;;;;;;;21.03;14.83;;;6.30;99.90;;;;;;4174086;28;20033;-65
2021/04/19 03:26:16;;;;;;;24.10;15.67;;;6.30;99.90;;;;;;4172250;28;20119;-64
2021/04/19 03:28:19;;;;;;;27.67;15.70;;;6.30;99.90;;;;;;4174062;28;20531;-62
2021/04/19 03:30:21;;;;;;;24.20;16.00;;;6.30;99.90;;;;;;4171680;28;21028;-65
2021/04/19 03:32:27;;;;;;;26.70;16.20;;;6.30;99.90;;;;;;4173377;28;20029;-65
2021/04/19 03:34:32;;;;;;;24.60;16.53;;;6.30;99.90;;;;;;4173113;28;20614;-62
2021/04/19 03:36:35;;;;;;;26.80;17.23;;;6.30;99.90;;;;;;4173300;28;20079;-65
2021/04/19 03:38:38;;;;;;;23.90;15.50;;;6.30;99.90;;;;;;4173653;28;20025;-63
2021/04/19 03:40:41;;;;;;;25.50;16.27;;;6.30;99.90;;;;;;4172651;28;20559;-63
2021/04/19 03:42:45;;;;;;;24.93;16.10;;;6.30;99.90;;;;;;4173407;28;20028;-63
2021/04/19 03:44:47;;;;;;;26.50;16.37;;;6.30;99.90;;;;;;4172425;28;20059;-64
2021/04/19 03:46:50;;;;;;;24.30;15.60;;;6.30;99.90;;;;;;4173668;28;20090;-64
2021/04/19 03:49:03;;;;;;;21.43;15.00;;;6.20;99.90;;;;;;4172387;28;20830;-63
2021/04/19 03:51:09;;;;;;;24.83;16.43;;;6.20;99.90;;;;;;4174046;28;20083;-63
2021/04/19 03:53:11;;;;;;;22.30;15.50;;;6.10;99.90;;;;;;4172528;28;20021;-64
2021/04/19 03:55:13;;;;;;;24.13;15.23;;;6.20;99.90;;;;;;4173475;28;20551;-62
2021/04/19 03:57:19;;;;;;;23.60;15.23;;;6.20;99.90;;;;;;4171438;28;20079;-63
2021/04/19 03:59:23;;;;;;;25.27;15.70;;;6.30;99.90;;;;;;4173359;28;20041;-67
2021/04/19 04:01:25;;;;;;;22.60;14.70;;;6.30;99.90;;;;;;4171760;28;20036;-63
2021/04/19 04:03:27;;;;;;;20.60;13.80;;;6.30;99.90;;;;;;4173313;28;20029;-64
2021/04/19 04:05:29;;;;;;;21.67;15.17;;;6.30;99.90;;;;;;4171410;28;20095;-61
2021/04/19 04:07:31;;;;;;;24.40;15.03;;;6.30;99.90;;;;;;4173069;28;20044;-66
2021/04/19 04:09:33;;;;;;;23.53;14.40;;;6.30;99.90;;;;;;4172179;28;20036;-67
2021/04/19 04:11:35;;;;;;;21.53;15.17;;;6.30;99.90;;;;;;4173102;28;20508;-70
2021/04/19 04:13:37;;;;;;;26.10;14.90;;;6.30;99.90;;;;;;4173954;28;20028;-63
2021/04/19 04:15:52;;;;;;;24.50;15.53;;;6.20;99.90;;;;;;4176466;28;20071;-61
2021/04/19 04:17:53;;;;;;;21.93;14.87;;;6.20;99.90;;;;;;4174969;28;20029;-62
2021/04/19 04:19:54;;;;;;;20.60;14.30;;;6.30;99.90;;;;;;4176193;28;20059;-66
2021/04/19 04:21:56;;;;;;;21.10;14.17;;;6.30;99.90;;;;;;4175280;28;20075;-63
2021/04/19 04:23:57;;;;;;;24.10;15.17;;;6.20;99.90;;;;;;4165821;28;20050;-63
2021/04/19 04:25:59;;;;;;;22.33;13.90;;;6.20;99.90;;;;;;4159160;28;20053;-62
2021/04/19 04:28:02;;;;;;;25.13;15.63;;;6.20;99.90;;;;;;4159038;28;20259;-63
2021/04/19 04:30:04;;;;;;;21.10;14.77;;;6.30;99.90;;;;;;4158952;28;20372;-63
2021/04/19 04:32:07;;;;;;;22.37;14.00;;;6.20;99.90;;;;;;4158992;28;20033;-65
2021/04/19 04:34:08;;;;;;;23.37;14.63;;;6.30;99.90;;;;;;4159926;28;20037;-53
2021/04/19 04:36:09;;;;;;;20.57;13.37;;;6.30;99.90;;;;;;4164394;28;20094;-62
2021/04/19 04:38:11;;;;;;;22.90;14.73;;;6.30;99.90;;;;;;4175789;28;20445;-61
2021/04/19 04:40:12;;;;;;;24.57;14.73;;;6.30;99.90;;;;;;4174146;28;20048;-62
2021/04/19 04:42:17;;;;;;;26.57;15.83;;;6.30;99.90;;;;;;4175968;28;20086;-60
2021/04/19 04:44:24;;;;;;;23.90;15.10;;;6.30;99.90;;;;;;4174717;28;20060;-63
2021/04/19 04:47:00;;;;;;;20.90;13.50;;;6.30;99.90;;;;;;4158272;28;20037;-61
2021/04/19 04:49:06;;;;;;;19.83;13.23;;;6.30;99.90;;;;;;4174451;28;20029;-67
2021/04/19 04:51:16;;;;;;;21.33;12.80;;;6.30;99.90;;;;;;4175663;28;20043;-62
2021/04/19 04:53:22;;;;;;;18.52;11.85;;;6.30;99.90;;;;;;4173970;28;20274;-63
2021/04/19 04:55:25;;;;;;;15.70;11.73;;;6.30;99.90;;;;;;4176187;28;20036;-62
2021/04/19 04:57:28;;;;;;;16.30;11.13;;;6.30;99.90;;;;;;4175498;28;20312;-63
2021/04/19 04:59:31;;;;;;;16.67;11.97;;;6.30;99.90;;;;;;4174748;28;20114;-65
2021/04/19 05:01:34;;;;;;;18.77;10.80;;;6.30;99.90;;;;;;4174169;28;20274;-61
2021/04/19 05:03:37;;;;;;;17.30;10.70;;;6.30;99.90;;;;;;4175817;28;20540;-63
2021/04/19 05:05:40;;;;;;;14.73;10.23;;;6.30;99.90;;;;;;4173592;28;20859;-61
2021/04/19 05:07:41;;;;;;;20.83;12.93;;;6.40;99.90;;;;;;4175906;28;20055;-62
2021/04/19 05:09:49;;;;;;;21.07;12.07;;;6.40;99.90;;;;;;4173995;28;20037;-63
2021/04/19 05:11:50;;;;;;;22.03;12.20;;;6.40;99.90;;;;;;4175139;28;20428;-62
2021/04/19 05:13:59;;;;;;;23.67;14.07;;;6.40;99.90;;;;;;4174850;28;20021;-64
2021/04/19 05:16:01;;;;;;;17.27;10.10;;;6.50;99.90;;;;;;4174067;28;20274;-62
2021/04/19 05:18:02;;;;;;;23.33;12.57;;;6.40;99.90;;;;;;4174745;28;20552;-62
2021/04/19 05:20:05;;;;;;;13.83;9.10;;;6.50;99.90;;;;;;4156210;28;20329;-63
2021/04/19 05:22:08;;;;;;;15.23;10.17;;;6.50;99.90;;;;;;4175056;28;20067;-63
2021/04/19 05:24:09;;;;;;;16.03;11.03;;;6.40;99.90;;;;;;4173486;28;20440;-62
2021/04/19 05:26:11;;;;;;;15.03;10.17;;;6.40;99.90;;;;;;4175434;28;20040;-64
2021/04/19 05:28:13;;;;;;;16.93;10.90;;;6.50;99.90;;;;;;4173752;28;20444;-61
2021/04/19 05:30:15;;;;;;;17.80;11.33;;;6.50;99.90;;;;;;4174418;28;20090;-62
2021/04/19 05:32:18;;;;;;;24.07;13.80;;;6.50;99.90;;;;;;4157417;28;20279;-61
2021/04/19 05:34:19;;;;;;;19.93;13.73;;;6.50;99.90;;;;;;4160231;28;20275;-64
2021/04/19 05:36:23;;;;;;;17.00;11.63;;;6.50;99.90;;;;;;4158176;28;20099;-62
2021/04/19 05:38:25;;;;;;;18.13;11.50;;;6.50;99.90;;;;;;4141506;28;20441;-62
2021/04/19 05:40:29;;;;;;;16.17;12.17;;;6.50;99.90;;;;;;4158093;28;20041;-63
2021/04/19 05:42:30;;;;;;;69.90;34.43;;;6.60;99.90;;;;;;4158867;28;20030;-68
2021/04/19 05:44:31;;;;;;;20.93;11.80;;;6.60;99.90;;;;;;4162190;28;20749;-60
2021/04/19 05:46:33;;;;;;;16.20;11.00;;;6.60;99.90;;;;;;4174784;28;20041;-64
2021/04/19 05:48:34;;;;;;;15.93;11.50;;;6.60;99.90;;;;;;4173800;28;20114;-63
2021/04/19 05:50:36;;;;;;;16.07;10.13;;;6.70;99.90;;;;;;4174302;28;20059;-68
2021/04/19 05:52:37;;;;;;;15.17;10.87;;;6.70;99.90;;;;;;4173933;28;20048;-63
2021/04/19 05:54:40;;;;;;;19.60;11.67;;;6.70;99.90;;;;;;4174128;28;20086;-62
2021/04/19 05:57:10;;;;;;;16.70;11.23;;;6.70;99.90;;;;;;4175033;28;20083;-67
2021/04/19 05:59:23;;;;;;;18.45;10.93;;;6.80;99.90;;;;;;4173814;28;20129;-68
2021/04/19 06:01:26;;;;;;;18.43;11.67;;;6.70;99.90;;;;;;4174716;28;20037;-64
2021/04/19 06:03:38;;;;;;;18.47;11.23;;;6.80;99.90;;;;;;4174089;28;20030;-62
2021/04/19 06:05:53;;;;;;;19.33;11.50;;;6.90;99.90;;;;;;4156158;28;20815;-64
2021/04/19 06:08:35;;;;;;;15.97;11.13;;;6.80;99.90;;;;;;4172805;28;20390;-68
2021/04/19 06:10:48;;;;;;;15.77;10.57;;;6.80;99.90;;;;;;4106783;28;20586;-66
2021/04/19 06:12:53;;;;;;;15.73;9.50;;;6.80;99.90;;;;;;4151228;28;20038;-62
2021/04/19 06:14:57;;;;;;;13.50;9.90;;;6.80;99.90;;;;;;4173596;28;20029;-65
2021/04/19 06:17:01;;;;;;;37.10;21.70;;;6.80;99.90;;;;;;4174266;28;20102;-62
2021/04/19 06:19:09;;;;;;;46.60;29.43;;;6.90;99.90;;;;;;4154786;28;20434;-62
2021/04/19 06:21:11;;;;;;;15.40;10.17;;;6.90;99.90;;;;;;4174389;28;20037;-63
2021/04/19 06:23:12;;;;;;;16.67;11.60;;;6.90;99.90;;;;;;4173921;28;20029;-65
2021/04/19 06:25:15;;;;;;;14.10;9.60;;;6.90;99.90;;;;;;4173816;28;20025;-63
2021/04/19 06:27:24;;;;;;;15.57;10.83;;;6.90;99.90;;;;;;4173787;28;20102;-65
2021/04/19 06:29:29;;;;;;;14.00;9.87;;;6.90;99.90;;;;;;4174182;28;20122;-69
2021/04/19 06:31:33;;;;;;;17.07;11.33;;;6.90;99.90;;;;;;4173682;28;20041;-63
2021/04/19 06:33:34;;;;;;;25.93;16.77;;;6.90;99.90;;;;;;4171249;28;20390;-63
2021/04/19 06:35:35;;;;;;;15.03;10.90;;;6.90;99.90;;;;;;4171261;28;20037;-62
2021/04/19 06:37:36;;;;;;;14.07;8.93;;;6.90;99.90;;;;;;4154772;28;20438;-61
2021/04/19 06:39:37;;;;;;;14.90;8.70;;;6.90;99.90;;;;;;4173268;28;20463;-65
2021/04/19 06:41:39;;;;;;;15.80;10.93;;;6.90;99.90;;;;;;4169984;28;20045;-67
2021/04/19 06:43:40;;;;;;;17.43;12.53;;;6.90;99.90;;;;;;4177209;28;20106;-66
2021/04/19 06:45:41;;;;;;;37.80;22.20;;;6.90;99.90;;;;;;4168599;28;20079;-61
2021/04/19 06:47:43;;;;;;;17.90;11.60;;;6.90;99.90;;;;;;4187361;28;20089;-62
2021/04/19 06:49:48;;;;;;;17.43;11.70;;;7.00;99.90;;;;;;4180904;28;20045;-64
2021/04/19 06:51:52;;;;;;;28.60;16.13;;;7.00;99.90;;;;;;4174174;28;20424;-62
2021/04/19 06:53:54;;;;;;;22.33;14.10;;;7.00;99.90;;;;;;4172725;28;20642;-63
2021/04/19 06:55:55;;;;;;;19.10;11.83;;;7.00;99.90;;;;;;4174170;28;20444;-64
2021/04/19 06:57:58;;;;;;;50.70;31.70;;;7.10;99.90;;;;;;4172043;28;20033;-63
2021/04/19 07:00:02;;;;;;;26.20;14.10;;;7.10;99.90;;;;;;4173687;28;20033;-64
2021/04/19 07:02:09;;;;;;;19.20;10.93;;;7.10;99.90;;;;;;4171110;28;20079;-62
2021/04/19 07:04:13;;;;;;;23.97;13.97;;;7.20;99.90;;;;;;4163421;28;20025;-64
2021/04/19 07:06:16;;;;;;;12.07;8.23;;;7.20;99.90;;;;;;4172530;28;20049;-62
2021/04/19 07:08:33;;;;;;;10.93;7.23;;;7.30;99.90;;;;;;4156735;28;20371;-62
2021/04/19 07:10:35;;;;;;;11.20;8.37;;;7.30;99.90;;;;;;4155894;28;20437;-62
2021/04/19 07:12:38;;;;;;;23.17;14.30;;;7.40;99.90;;;;;;4156454;28;20041;-61
2021/04/19 07:14:40;;;;;;;10.10;7.57;;;7.40;99.90;;;;;;4159514;28;20026;-61
2021/04/19 07:16:41;;;;;;;14.50;7.37;;;7.40;99.90;;;;;;4171425;28;20045;-62
2021/04/19 07:18:42;;;;;;;11.83;7.97;;;7.40;99.90;;;;;;4172849;28;22428;-60
2021/04/19 07:20:45;;;;;;;13.30;8.23;;;7.50;99.90;;;;;;4171732;28;20044;-63
2021/04/19 07:22:47;;;;;;;10.60;7.57;;;7.50;99.90;;;;;;4173638;28;20028;-64
2021/04/19 07:24:49;;;;;;;16.33;8.67;;;7.70;99.90;;;;;;4172619;28;20082;-62
2021/04/19 07:26:52;;;;;;;14.17;8.23;;;7.70;99.90;;;;;;4172238;28;20065;-60
2021/04/19 07:28:54;;;;;;;11.03;8.13;;;7.80;99.90;;;;;;4172118;28;20440;-62
2021/04/19 07:30:59;;;;;;;10.87;7.93;;;7.90;99.90;;;;;;4173628;28;20037;-63
2021/04/19 07:33:00;;;;;;;13.17;9.13;;;7.90;99.90;;;;;;4171814;28;20045;-62
2021/04/19 07:35:05;;;;;;;12.10;8.37;;;7.90;99.90;;;;;;4173458;28;20388;-63
2021/04/19 07:37:11;;;;;;;12.80;8.13;;;7.90;99.90;;;;;;4171312;28;20053;-62
2021/04/19 07:39:17;;;;;;;9.77;7.63;;;8.00;99.90;;;;;;4173163;28;20555;-62
2021/04/19 07:41:18;;;;;;;11.47;8.40;;;8.00;99.90;;;;;;4172150;28;20041;-61
2021/04/19 07:43:24;;;;;;;12.20;8.53;;;8.00;99.90;;;;;;4172752;28;20082;-61
2021/04/19 07:45:25;;;;;;;14.93;9.80;;;8.10;99.90;;;;;;4172925;28;20033;-65
2021/04/19 07:47:30;;;;;;;10.73;8.00;;;8.20;99.90;;;;;;4172950;28;20071;-62
2021/04/19 07:49:32;;;;;;;10.90;7.30;;;8.30;99.90;;;;;;4176033;28;20067;-64
2021/04/19 07:51:37;;;;;;;13.23;8.20;;;8.40;99.90;;;;;;4176275;28;20022;-59
2021/04/19 07:53:38;;;;;;;10.27;8.27;;;8.50;99.90;;;;;;4176689;28;20067;-66
2021/04/19 07:55:47;;;;;;;11.07;7.57;;;8.60;99.90;;;;;;4176293;28;20083;-64
2021/04/19 07:57:49;;;;;;;12.20;8.20;;;8.60;99.90;;;;;;4175670;28;20836;-65
2021/04/19 07:59:50;;;;;;;10.30;8.03;;;8.70;99.90;;;;;;4174764;28;20390;-63
2021/04/19 08:01:58;;;;;;;14.30;7.93;;;8.80;99.90;;;;;;4175923;28;20091;-63
2021/04/19 08:04:05;;;;;;;16.50;8.70;;;8.90;99.90;;;;;;4175690;28;20087;-62
2021/04/19 08:06:17;;;;;;;10.30;8.13;;;8.90;99.90;;;;;;4176270;28;21781;-62
2021/04/19 08:08:18;;;;;;;12.10;7.80;;;8.90;99.90;;;;;;4175209;28;20485;-63
2021/04/19 08:10:21;;;;;;;10.50;7.40;;;9.00;99.90;;;;;;4176027;28;20029;-62
2021/04/19 08:12:36;;;;;;;9.87;6.73;;;9.00;99.90;;;;;;4175344;28;20098;-63
2021/04/19 08:14:53;;;;;;;10.43;7.03;;;8.90;99.90;;;;;;4177193;28;20646;-62
2021/04/19 08:17:09;;;;;;;10.67;7.70;;;8.70;99.90;;;;;;4175291;28;21124;-63
2021/04/19 08:19:10;;;;;;;17.30;9.67;;;8.70;99.90;;;;;;4176630;28;20025;-65
2021/04/19 08:21:12;;;;;;;16.40;9.43;;;8.60;99.90;;;;;;4175121;28;20099;-62
2021/04/19 08:23:14;;;;;;;10.70;6.97;;;8.70;99.90;;;;;;4176463;28;20024;-62
2021/04/19 08:25:24;;;;;;;7.57;5.93;;;8.80;99.90;;;;;;4174683;28;20483;-63
2021/04/19 08:27:26;;;;;;;13.55;6.90;;;8.70;99.90;;;;;;4175808;28;20094;-61
2021/04/19 08:29:43;;;;;;;9.33;6.40;;;8.70;99.90;;;;;;4174190;28;20107;-61
2021/04/19 08:31:44;;;;;;;10.93;6.17;;;8.70;99.90;;;;;;4158218;28;20042;-61
2021/04/19 08:33:47;;;;;;;10.60;6.47;;;8.70;99.90;;;;;;4175585;28;20029;-61
2021/04/19 08:35:48;;;;;;;8.63;7.00;;;8.70;99.90;;;;;;4176244;28;20044;-60
2021/04/19 08:37:51;;;;;;;9.57;6.37;;;8.80;99.90;;;;;;4174262;28;20086;-61
2021/04/19 08:39:54;;;;;;;10.73;7.30;;;8.70;99.90;;;;;;4176621;28;20363;-62
2021/04/19 08:41:56;;;;;;;10.90;7.07;;;8.90;99.90;;;;;;4173507;28;20053;-63
2021/04/19 08:43:57;;;;;;;11.77;7.43;;;8.80;99.90;;;;;;4158031;28;20490;-64
2021/04/19 08:45:59;;;;;;;14.23;7.33;;;8.70;99.90;;;;;;4175160;28;20052;-62
2021/04/19 08:48:01;;;;;;;10.93;7.43;;;8.80;99.90;;;;;;4174027;28;20400;-63
2021/04/19 08:50:07;;;;;;;8.97;7.27;;;8.90;99.90;;;;;;4175127;28;20025;-65
2021/04/19 08:52:09;;;;;;;10.13;6.70;;;9.00;99.90;;;;;;4175302;28;20021;-62
2021/04/19 08:54:10;;;;;;;10.17;7.13;;;8.90;99.90;;;;;;4173406;28;20033;-61
2021/04/19 08:56:12;;;;;;;9.70;7.40;;;8.90;99.90;;;;;;4173968;28;20091;-64
2021/04/19 08:58:15;;;;;;;11.80;7.37;;;8.90;99.90;;;;;;4175406;28;20041;-63
2021/04/19 09:00:23;;;;;;;17.17;7.17;;;9.00;99.90;;;;;;4156573;28;20084;-62
2021/04/19 09:02:24;;;;;;;9.97;6.40;;;9.00;99.90;;;;;;4175056;28;20037;-63
2021/04/19 09:04:25;;;;;;;11.03;7.13;;;8.90;99.90;;;;;;4173322;28;20071;-61
2021/04/19 09:06:38;;;;;;;9.00;6.63;;;8.90;99.90;;;;;;4176213;28;20744;-63
2021/04/19 09:08:39;;;;;;;11.33;6.63;;;8.90;99.90;;;;;;4173871;28;20037;-64
2021/04/19 09:10:47;;;;;;;10.33;7.20;;;8.90;99.90;;;;;;4175334;28;20040;-63
2021/04/19 09:12:48;;;;;;;13.97;7.33;;;9.00;99.90;;;;;;4174146;28;20465;-61
2021/04/19 09:14:50;;;;;;;9.77;6.73;;;9.00;99.90;;;;;;4175690;28;20045;-62
2021/04/19 09:16:57;;;;;;;12.33;7.47;;;9.10;99.90;;;;;;4173709;28;20136;-62
2021/04/19 09:19:00;;;;;;;14.07;7.47;;;9.00;99.90;;;;;;4175359;28;20033;-64
2021/04/19 09:21:01;;;;;;;8.30;6.27;;;9.10;99.90;;;;;;4173678;28;20079;-62
2021/04/19 09:23:22;;;;;;;8.27;6.20;;;9.10;99.90;;;;;;4175045;28;20032;-61
2021/04/19 09:25:42;;;;;;;10.47;6.13;;;9.20;99.90;;;;;;4174219;28;20432;-63
2021/04/19 09:27:49;;;;;;;11.63;6.17;;;9.20;99.90;;;;;;4175026;28;20099;-63
2021/04/19 09:29:50;;;;;;;7.50;6.17;;;9.10;99.90;;;;;;4173723;28;20056;-63
2021/04/19 09:31:59;;;;;;;8.93;6.67;;;9.20;99.90;;;;;;4174846;28;20037;-63
2021/04/19 09:34:12;;;;;;;8.73;6.93;;;9.20;99.90;;;;;;4172385;28;20049;-63
2021/04/19 09:36:13;;;;;;;9.70;6.50;;;9.30;99.90;;;;;;4174679;28;20038;-62
2021/04/19 09:38:15;;;;;;;15.13;6.40;;;9.50;99.90;;;;;;4172302;28;21024;-63
2021/04/19 09:40:23;;;;;;;11.97;6.37;;;9.50;99.90;;;;;;4174785;28;20086;-66
2021/04/19 09:42:55;;;;;;;12.00;7.10;;;9.50;99.90;;;;;;4173162;28;20033;-66
2021/04/19 09:44:56;;;;;;;11.97;7.23;;;9.70;99.90;;;;;;4175397;28;20041;-64
2021/04/19 09:46:57;;;;;;;10.57;7.13;;;9.80;99.90;;;;;;4173835;28;20415;-61
2021/04/19 09:49:04;;;;;;;11.80;6.47;;;10.00;99.90;;;;;;4174450;28;20041;-63
2021/04/19 09:51:20;;;;;;;9.17;6.80;;;10.00;99.90;;;;;;4173077;28;20174;-61
2021/04/19 09:53:21;;;;;;;13.30;8.57;;;10.00;99.90;;;;;;4175288;28;20032;-62
2021/04/19 09:55:23;;;;;;;11.33;6.80;;;10.10;99.90;;;;;;4172897;28;20495;-62
2021/04/19 09:57:24;;;;;;;12.00;8.20;;;10.20;99.90;;;;;;4174782;28;20086;-61
2021/04/19 09:59:29;;;;;;;10.20;7.73;;;10.40;99.90;;;;;;4173771;28;20071;-61
2021/04/19 10:01:33;;;;;;;10.73;7.50;;;10.50;99.90;;;;;;4155893;28;20033;-67
2021/04/19 10:03:35;;;;;;;12.43;7.40;;;10.60;99.90;;;;;;4172959;28;20155;-61
2021/04/19 10:05:42;;;;;;;12.40;7.53;;;10.60;99.90;;;;;;4173731;28;20154;-62
2021/04/19 10:07:46;;;;;;;9.37;6.50;;;10.50;99.90;;;;;;4173052;28;20079;-61
2021/04/19 10:09:48;;;;;;;10.10;7.10;;;10.50;99.90;;;;;;4173538;28;20021;-64
2021/04/19 10:11:54;;;;;;;7.23;5.70;;;10.50;99.90;;;;;;4155502;28;20045;-61
2021/04/19 10:13:56;;;;;;;11.50;7.20;;;10.60;99.90;;;;;;4172467;28;20488;-59
2021/04/19 10:16:13;;;;;;;8.63;6.33;;;10.70;99.90;;;;;;4174098;28;20036;-64
2021/04/19 10:18:14;;;;;;;9.63;6.07;;;10.70;99.90;;;;;;4163767;28;20083;-60
2021/04/19 10:20:25;;;;;;;10.43;7.10;;;10.70;99.90;;;;;;4174868;28;20174;-63
2021/04/19 10:22:26;;;;;;;;;;;10.90;99.90;;;;;;4173424;28;20067;-63
2021/04/19 10:24:28;;;;;;;13.33;7.20;;;10.90;99.90;;;;;;4173936;28;19916;-62
2021/04/19 10:26:39;;;;;;;9.43;7.30;;;10.90;99.90;;;;;;4172019;28;20509;-66
2021/04/19 10:28:43;;;;;;;11.33;7.27;;;10.80;99.90;;;;;;4171081;28;20086;-62
2021/04/19 10:30:44;;;;;;;11.87;7.23;;;10.70;99.90;;;;;;4172365;28;20087;-62
2021/04/19 10:32:47;;;;;;;15.97;9.87;;;10.90;99.90;;;;;;4173361;28;20040;-60
2021/04/19 10:34:48;;;;;;;17.40;10.57;;;11.00;99.90;;;;;;4162356;28;20093;-61
2021/04/19 10:36:53;;;;;;;10.03;7.10;;;11.20;99.90;;;;;;4157404;28;20038;-61
2021/04/19 10:38:58;;;;;;;9.80;6.43;;;11.20;99.90;;;;;;4156669;28;20441;-61
2021/04/19 10:41:00;;;;;;;10.03;7.10;;;11.20;99.90;;;;;;4158058;28;20030;-62
2021/04/19 10:43:11;;;;;;;8.43;6.47;;;11.00;99.90;;;;;;4156736;28;20026;-62
2021/04/19 10:45:13;;;;;;;9.20;6.70;;;10.90;99.90;;;;;;4171978;28;20045;-63
2021/04/19 10:47:27;;;;;;;12.23;7.23;;;10.80;99.90;;;;;;4172865;28;20106;-62